createdAt,value
2023-05-19T00:00:14.779Z,18.68
2023-05-19T00:02:44.141Z,18.68
2023-05-19T00:05:15.176Z,18.67
2023-05-19T00:07:45.036Z,18.67
2023-05-19T00:10:16.210Z,18.67
2023-05-19T00:12:47.811Z,18.66
2023-05-19T00:15:16.741Z,18.66
2023-05-19T00:17:44.949Z,18.65
2023-05-19T00:20:14.428Z,18.64
2023-05-19T00:22:44.105Z,18.64
2023-05-19T00:25:12.330Z,18.65
2023-05-19T00:27:41.825Z,18.64
2023-05-19T00:30:10.755Z,18.64
2023-05-19T00:32:38.949Z,18.63
2023-05-19T00:35:10.432Z,18.63
2023-05-19T00:37:39.078Z,18.62
2023-05-19T00:40:10.799Z,18.62
2023-05-19T00:42:47.449Z,18.61
2023-05-19T00:45:15.883Z,18.61
2023-05-19T00:47:44.207Z,18.60
2023-05-19T00:50:13.448Z,18.60
2023-05-19T00:52:41.659Z,18.59
2023-05-19T00:55:11.722Z,18.59
2023-05-19T00:57:41.286Z,18.59
2023-05-19T01:00:11.312Z,18.59
2023-05-19T01:02:40.013Z,18.58
2023-05-19T01:05:12.562Z,18.58
2023-05-19T01:07:42.280Z,18.57
2023-05-19T01:10:11.258Z,18.58
2023-05-19T01:12:42.950Z,18.56
2023-05-19T01:15:15.028Z,18.56
2023-05-19T01:17:50.662Z,18.56
2023-05-19T01:20:26.147Z,18.56
2023-05-19T01:23:36.741Z,18.55
2023-05-19T01:26:43.686Z,18.55
2023-05-19T01:29:43.346Z,18.54
2023-05-19T01:32:15.725Z,18.54
2023-05-19T01:34:47.580Z,18.54
2023-05-19T01:37:17.398Z,18.53
2023-05-19T01:39:46.292Z,18.52
2023-05-19T01:42:16.779Z,18.52
2023-05-19T01:44:48.488Z,18.51
2023-05-19T01:47:18.452Z,18.51
2023-05-19T01:49:48.277Z,18.50
2023-05-19T01:52:16.781Z,18.50
2023-05-19T01:54:45.117Z,18.50
2023-05-19T01:57:21.214Z,18.50
2023-05-19T02:00:00.710Z,18.50
2023-05-19T02:02:44.713Z,18.48
2023-05-19T02:05:21.776Z,18.48
2023-05-19T02:07:59.819Z,18.48
2023-05-19T02:10:31.938Z,18.47
2023-05-19T02:13:05.683Z,18.47
2023-05-19T02:15:39.322Z,18.46
2023-05-19T02:18:11.563Z,18.46
2023-05-19T02:20:43.461Z,18.46
2023-05-19T02:23:18.947Z,18.45
2023-05-19T02:25:50.199Z,18.45
2023-05-19T02:28:19.133Z,18.44
2023-05-19T02:30:47.289Z,18.44
2023-05-19T02:33:17.412Z,18.45
2023-05-19T02:35:45.749Z,18.43
2023-05-19T02:38:13.933Z,18.44
2023-05-19T02:40:42.062Z,18.43
2023-05-19T02:43:13.284Z,18.43
2023-05-19T02:45:43.870Z,18.42
2023-05-19T02:48:12.454Z,18.42
2023-05-19T02:50:43.024Z,18.41
2023-05-19T02:53:11.194Z,18.41
2023-05-19T02:55:41.721Z,18.41
2023-05-19T02:58:09.822Z,18.41
2023-05-19T03:00:38.262Z,18.41
2023-05-19T03:03:06.522Z,18.40
2023-05-19T03:05:35.054Z,18.39
2023-05-19T03:08:04.795Z,18.39
2023-05-19T03:10:33.083Z,18.38
2023-05-19T03:13:03.745Z,18.38
2023-05-19T03:15:34.346Z,18.38
2023-05-19T03:18:02.471Z,18.37
2023-05-19T03:20:31.692Z,18.37
2023-05-19T03:23:01.409Z,18.38
2023-05-19T03:25:31.938Z,18.36
2023-05-19T03:28:01.620Z,18.37
2023-05-19T03:30:29.812Z,18.36
2023-05-19T03:32:58.103Z,18.35
2023-05-19T03:35:35.172Z,18.36
2023-05-19T03:38:03.291Z,18.35
2023-05-19T03:40:32.928Z,18.34
2023-05-19T03:43:02.027Z,18.35
2023-05-19T03:45:30.179Z,18.34
2023-05-19T03:48:02.362Z,18.34
2023-05-19T03:50:31.744Z,18.34
2023-05-19T03:53:00.223Z,18.34
2023-05-19T03:55:32.764Z,18.34
2023-05-19T03:58:00.818Z,18.33
2023-05-19T04:00:28.967Z,18.34
2023-05-19T04:03:00.294Z,18.33
2023-05-19T04:05:28.793Z,18.33
2023-05-19T04:07:56.832Z,18.33
2023-05-19T04:10:24.951Z,18.33
2023-05-19T04:12:54.421Z,18.32
2023-05-19T04:15:22.646Z,18.33
2023-05-19T04:17:50.893Z,18.33
2023-05-19T04:20:19.587Z,18.33
2023-05-19T04:22:47.673Z,18.32
2023-05-19T04:25:15.886Z,18.33
2023-05-19T04:27:45.057Z,18.33
2023-05-19T04:30:18.636Z,18.33
2023-05-19T04:32:46.938Z,18.33
2023-05-19T04:35:24.669Z,18.32
2023-05-19T04:37:54.400Z,18.33
2023-05-19T04:40:26.626Z,18.33
2023-05-19T04:42:57.358Z,18.34
2023-05-19T04:45:26.971Z,18.33
2023-05-19T04:47:57.895Z,18.34
2023-05-19T04:50:26.245Z,18.34
2023-05-19T04:52:54.343Z,18.35
2023-05-19T04:55:23.096Z,18.35
2023-05-19T04:57:52.422Z,18.35
2023-05-19T05:00:22.130Z,18.36
2023-05-19T05:02:51.894Z,18.35
2023-05-19T05:05:20.322Z,18.37
2023-05-19T05:07:49.494Z,18.37
2023-05-19T05:10:17.623Z,18.37
2023-05-19T05:12:46.831Z,18.39
2023-05-19T05:15:15.608Z,18.39
2023-05-19T05:17:45.642Z,18.39
2023-05-19T05:20:19.567Z,18.40
2023-05-19T05:22:48.433Z,18.40
2023-05-19T05:25:18.475Z,18.41
2023-05-19T05:27:52.524Z,18.41
2023-05-19T05:30:23.653Z,18.41
2023-05-19T05:32:51.905Z,18.43
2023-05-19T05:35:24.739Z,18.43
2023-05-19T05:37:52.823Z,18.44
2023-05-19T05:40:23.750Z,18.45
2023-05-19T05:42:52.155Z,18.45
2023-05-19T05:45:20.298Z,18.46
2023-05-19T05:47:49.298Z,18.48
2023-05-19T05:50:19.589Z,18.48
2023-05-19T05:52:50.136Z,18.50
2023-05-19T05:55:20.368Z,18.49
2023-05-19T05:57:48.815Z,18.51
2023-05-19T06:00:17.987Z,18.52
2023-05-19T06:02:47.599Z,18.52
2023-05-19T06:05:18.930Z,18.54
2023-05-19T06:07:51.390Z,18.54
2023-05-19T06:10:19.569Z,18.55
2023-05-19T06:12:50.561Z,18.56
2023-05-19T06:15:18.756Z,18.57
2023-05-19T06:17:46.872Z,18.58
2023-05-19T06:20:15.267Z,18.59
2023-05-19T06:22:43.351Z,18.60
2023-05-19T06:25:13.459Z,18.60
2023-05-19T06:27:41.747Z,18.62
2023-05-19T06:30:13.676Z,18.62
2023-05-19T06:32:41.782Z,18.63
2023-05-19T06:35:10.290Z,18.64
2023-05-19T06:37:38.903Z,18.66
2023-05-19T06:40:08.391Z,18.65
2023-05-19T06:42:38.252Z,18.67
2023-05-19T06:45:08.514Z,18.67
2023-05-19T06:47:36.849Z,18.69
2023-05-19T06:50:05.418Z,18.69
2023-05-19T06:52:34.066Z,18.70
2023-05-19T06:55:02.289Z,18.71
2023-05-19T06:57:30.705Z,18.72
2023-05-19T07:00:00.177Z,18.72
2023-05-19T07:02:28.421Z,18.73
2023-05-19T07:04:57.568Z,18.75
2023-05-19T07:07:26.729Z,18.77
2023-05-19T07:09:54.813Z,18.78
2023-05-19T07:12:22.979Z,18.79
2023-05-19T07:14:51.062Z,18.80
2023-05-19T07:17:25.747Z,18.81
2023-05-19T07:19:58.960Z,18.83
2023-05-19T07:22:27.356Z,18.84
2023-05-19T07:24:57.093Z,18.85
2023-05-19T07:27:25.324Z,18.86
2023-05-19T07:29:53.615Z,18.87
2023-05-19T07:32:23.264Z,18.88
2023-05-19T07:34:51.521Z,18.90
2023-05-19T07:37:19.725Z,18.91
2023-05-19T07:39:47.905Z,18.92
2023-05-19T07:42:15.965Z,18.93
2023-05-19T07:44:44.256Z,18.95
2023-05-19T07:47:12.424Z,18.97
2023-05-19T07:49:41.914Z,18.97
2023-05-19T07:52:10.373Z,18.98
2023-05-19T07:54:38.797Z,19.00
2023-05-19T07:57:07.264Z,19.01
2023-05-19T07:59:35.586Z,19.03
2023-05-19T08:02:03.756Z,19.04
2023-05-19T08:04:31.922Z,19.05
2023-05-19T08:07:01.402Z,19.06
2023-05-19T08:09:29.982Z,19.07
2023-05-19T08:11:58.111Z,19.09
2023-05-19T08:14:27.011Z,19.10
2023-05-19T08:16:55.066Z,19.11
2023-05-19T08:19:23.583Z,19.12
2023-05-19T08:21:51.810Z,19.14
2023-05-19T08:24:21.261Z,19.16
2023-05-19T08:26:49.373Z,19.16
2023-05-19T08:29:17.499Z,19.17
2023-05-19T08:31:45.632Z,19.18
2023-05-19T08:34:13.831Z,19.20
2023-05-19T08:36:41.995Z,19.21
2023-05-19T08:39:10.111Z,19.23
2023-05-19T08:41:39.618Z,19.24
2023-05-19T08:44:07.733Z,19.25
2023-05-19T08:46:36.864Z,19.27
2023-05-19T08:49:10.917Z,19.28
2023-05-19T08:51:45.721Z,19.30
2023-05-19T08:54:16.277Z,19.30
2023-05-19T08:56:46.585Z,19.31
2023-05-19T08:59:15.645Z,19.33
2023-05-19T09:01:46.422Z,19.34
2023-05-19T09:04:15.154Z,19.35
2023-05-19T09:06:45.132Z,19.36
2023-05-19T09:09:13.515Z,19.38
2023-05-19T09:11:41.833Z,19.39
2023-05-19T09:14:11.511Z,19.40
2023-05-19T09:16:40.457Z,19.41
2023-05-19T09:19:16.077Z,19.42
2023-05-19T09:21:45.872Z,19.43
2023-05-19T09:24:14.164Z,19.44
2023-05-19T09:26:43.745Z,19.45
2023-05-19T09:29:14.250Z,19.47
2023-05-19T09:31:50.208Z,19.48
2023-05-19T09:34:18.694Z,19.50
2023-05-19T09:36:49.511Z,19.51
2023-05-19T09:39:18.978Z,19.52
2023-05-19T09:41:47.596Z,19.53
2023-05-19T09:44:23.497Z,19.54
2023-05-19T09:46:52.852Z,19.56
2023-05-19T09:49:22.647Z,19.57
2023-05-19T09:51:52.541Z,19.59
2023-05-19T09:54:23.097Z,19.60
2023-05-19T09:56:59.953Z,19.62
2023-05-19T09:59:33.027Z,19.63
2023-05-19T10:02:03.345Z,19.65
2023-05-19T10:04:32.142Z,19.67
2023-05-19T10:07:00.970Z,19.68
2023-05-19T10:09:32.000Z,19.70
2023-05-19T10:12:02.113Z,19.70
2023-05-19T10:14:31.581Z,19.73
2023-05-19T10:17:00.612Z,19.74
2023-05-19T10:19:30.018Z,19.76
2023-05-19T10:22:01.305Z,19.77
2023-05-19T10:24:29.596Z,19.78
2023-05-19T10:27:04.652Z,19.81
2023-05-19T10:29:38.969Z,19.83
2023-05-19T10:32:12.700Z,19.86
2023-05-19T10:35:25.161Z,19.88
2023-05-19T10:38:00.145Z,19.90
2023-05-19T10:40:30.379Z,19.92
2023-05-19T10:43:08.811Z,19.94
2023-05-19T10:45:47.217Z,19.96
2023-05-19T10:48:16.293Z,19.97
2023-05-19T10:50:46.390Z,19.99
2023-05-19T10:53:19.400Z,20.00
2023-05-19T10:55:48.668Z,20.01
2023-05-19T10:58:17.377Z,20.02
2023-05-19T11:00:46.794Z,20.05
2023-05-19T11:03:16.004Z,20.07
2023-05-19T11:05:45.775Z,20.11
2023-05-19T11:08:15.219Z,20.14
2023-05-19T11:10:46.038Z,20.17
2023-05-19T11:13:23.116Z,20.18
2023-05-19T11:15:53.262Z,20.19
2023-05-19T11:18:22.114Z,20.22
2023-05-19T11:20:59.171Z,20.23
2023-05-19T11:23:27.616Z,20.25
2023-05-19T11:25:55.666Z,20.28
2023-05-19T11:28:26.256Z,20.30
2023-05-19T11:30:59.066Z,20.33
2023-05-19T11:33:27.812Z,20.36
2023-05-19T11:35:58.909Z,20.39
2023-05-19T11:38:28.987Z,20.42
2023-05-19T11:40:57.671Z,20.45
2023-05-19T11:43:32.737Z,20.47
2023-05-19T11:46:04.873Z,20.51
2023-05-19T11:48:34.081Z,20.54
2023-05-19T11:51:02.322Z,20.56
2023-05-19T11:53:33.247Z,20.60
2023-05-19T11:56:04.883Z,20.63
2023-05-19T11:58:33.130Z,20.65
2023-05-19T12:01:06.260Z,20.66
2023-05-19T12:03:35.731Z,20.70
2023-05-19T12:06:08.491Z,20.73
2023-05-19T12:08:37.937Z,20.76
2023-05-19T12:11:08.521Z,20.81
2023-05-19T12:13:38.161Z,20.82
2023-05-19T12:16:09.600Z,20.83
2023-05-19T12:18:38.481Z,20.85
2023-05-19T12:21:09.577Z,20.89
2023-05-19T12:23:41.609Z,20.92
2023-05-19T12:26:12.810Z,20.96
2023-05-19T12:28:41.456Z,20.98
2023-05-19T12:31:12.472Z,21.02
2023-05-19T12:33:45.987Z,21.04
2023-05-19T12:36:14.435Z,21.06
2023-05-19T12:38:42.686Z,21.08
2023-05-19T12:41:12.440Z,21.11
2023-05-19T12:43:41.826Z,21.13
2023-05-19T12:46:16.567Z,21.18
2023-05-19T12:48:45.381Z,21.20
2023-05-19T12:51:17.805Z,21.24
2023-05-19T12:53:46.512Z,21.26
2023-05-19T12:56:15.882Z,21.26
2023-05-19T12:58:45.990Z,21.27
2023-05-19T13:01:20.031Z,21.29
2023-05-19T13:03:48.588Z,21.28
2023-05-19T13:06:16.951Z,21.29
2023-05-19T13:08:45.449Z,21.31
2023-05-19T13:11:13.529Z,21.34
2023-05-19T13:13:41.638Z,21.35
2023-05-19T13:16:09.790Z,21.37
2023-05-19T13:18:39.756Z,21.39
2023-05-19T13:21:09.962Z,21.43
2023-05-19T13:23:38.114Z,21.47
2023-05-19T13:26:07.877Z,21.48
2023-05-19T13:28:36.031Z,21.50
2023-05-19T13:31:05.582Z,21.50
2023-05-19T13:33:33.658Z,21.51
2023-05-19T13:36:03.256Z,21.50
2023-05-19T13:38:31.475Z,21.52
2023-05-19T13:40:59.606Z,21.56
2023-05-19T13:43:27.796Z,21.58
2023-05-19T13:45:55.920Z,21.61
2023-05-19T13:48:24.140Z,21.63
2023-05-19T13:50:55.735Z,21.66
2023-05-19T13:53:26.593Z,21.69
2023-05-19T13:55:56.629Z,21.71
2023-05-19T13:58:25.565Z,21.73
2023-05-19T14:00:56.847Z,21.73
2023-05-19T14:05:53.191Z,21.74
2023-05-19T14:08:22.156Z,21.77
2023-05-19T14:10:52.382Z,21.80
2023-05-19T14:13:32.711Z,21.81
2023-05-19T14:16:06.435Z,21.83
2023-05-19T14:18:34.801Z,21.84
2023-05-19T14:21:02.952Z,21.85
2023-05-19T14:23:33.698Z,21.86
2023-05-19T14:26:03.547Z,21.86
2023-05-19T14:28:31.677Z,21.86
2023-05-19T14:30:59.864Z,21.88
2023-05-19T14:33:28.276Z,21.90
2023-05-19T14:35:59.941Z,21.91
2023-05-19T14:38:29.436Z,21.93
2023-05-19T14:40:58.284Z,21.96
2023-05-19T14:43:34.937Z,21.97
2023-05-19T14:46:03.560Z,21.99
2023-05-19T14:48:31.808Z,22.01
2023-05-19T14:50:59.892Z,22.04
2023-05-19T14:53:29.172Z,22.05
2023-05-19T14:56:00.153Z,22.07
2023-05-19T14:58:29.906Z,22.10
2023-05-19T15:00:59.513Z,22.11
2023-05-19T15:03:27.767Z,22.13
2023-05-19T15:05:58.554Z,22.15
2023-05-19T15:08:26.695Z,22.16
2023-05-19T15:10:54.840Z,22.18
2023-05-19T15:13:26.470Z,22.17
2023-05-19T15:16:08.407Z,22.17
2023-05-19T15:18:43.589Z,22.18
2023-05-19T15:21:11.851Z,22.19
2023-05-19T15:23:39.965Z,22.18
2023-05-19T15:26:08.744Z,22.20
2023-05-19T15:28:36.958Z,22.20
2023-05-19T15:31:06.655Z,22.18
2023-05-19T15:33:36.240Z,22.18
2023-05-19T15:36:07.528Z,22.17
2023-05-19T15:38:37.125Z,22.16
2023-05-19T15:41:08.046Z,22.15
2023-05-19T15:43:36.285Z,22.15
2023-05-19T15:46:06.199Z,22.14
2023-05-19T15:48:34.520Z,22.14
2023-05-19T15:51:02.879Z,22.13
2023-05-19T15:53:33.623Z,22.12
2023-05-19T15:56:03.329Z,22.12
2023-05-19T15:58:32.827Z,22.11
2023-05-19T16:01:04.494Z,22.11
2023-05-19T16:03:34.100Z,22.11
2023-05-19T16:06:02.213Z,22.11
2023-05-19T16:08:30.750Z,22.10
2023-05-19T16:10:59.999Z,22.10
2023-05-19T16:13:28.314Z,22.11
2023-05-19T16:15:56.725Z,22.11
2023-05-19T16:18:24.880Z,22.10
2023-05-19T16:20:54.406Z,22.08
2023-05-19T16:23:25.413Z,22.07
2023-05-19T16:25:54.658Z,22.07
2023-05-19T16:28:24.862Z,22.08
2023-05-19T16:30:53.325Z,22.07
2023-05-19T16:33:21.473Z,22.07
2023-05-19T16:35:49.897Z,22.06
2023-05-19T16:38:19.473Z,22.06
2023-05-19T16:40:50.582Z,22.05
2023-05-19T16:43:19.852Z,22.04
2023-05-19T16:45:49.367Z,22.04
2023-05-19T16:48:19.848Z,22.04
2023-05-19T16:50:50.428Z,22.03
2023-05-19T16:53:21.466Z,22.03
2023-05-19T16:55:49.710Z,22.02
2023-05-19T16:58:18.127Z,22.00
2023-05-19T17:00:46.186Z,22.00
2023-05-19T17:03:14.517Z,21.99
2023-05-19T17:05:43.528Z,21.98
2023-05-19T17:08:12.690Z,21.98
2023-05-19T17:10:42.240Z,21.98
2023-05-19T17:13:10.586Z,21.96
2023-05-19T17:15:39.601Z,21.96
2023-05-19T17:18:10.812Z,21.95
2023-05-19T17:20:39.158Z,21.95
2023-05-19T17:23:07.397Z,21.95
2023-05-19T17:25:35.868Z,21.94
2023-05-19T17:28:05.586Z,21.93
2023-05-19T17:30:34.697Z,21.92
2023-05-19T17:33:03.799Z,21.90
2023-05-19T17:35:31.941Z,21.88
2023-05-19T17:38:00.732Z,21.87
2023-05-19T17:40:31.759Z,21.86
2023-05-19T17:43:00.135Z,21.84
2023-05-19T17:45:31.113Z,21.84
2023-05-19T17:48:00.624Z,21.81
2023-05-19T17:50:28.845Z,21.80
2023-05-19T17:52:57.721Z,21.79
2023-05-19T17:55:29.985Z,21.77
2023-05-19T17:58:00.358Z,21.78
2023-05-19T18:00:30.780Z,21.76
2023-05-19T18:02:59.985Z,21.75
2023-05-19T18:05:36.028Z,21.74
2023-05-19T18:08:09.318Z,21.73
2023-05-19T18:10:39.481Z,21.72
2023-05-19T18:13:08.475Z,21.71
2023-05-19T18:15:38.151Z,21.71
2023-05-19T18:18:08.064Z,21.71
2023-05-19T18:20:37.900Z,21.71
2023-05-19T18:23:06.524Z,21.71
2023-05-19T18:25:34.667Z,21.71
2023-05-19T18:28:03.133Z,21.72
2023-05-19T18:30:32.498Z,21.71
2023-05-19T18:33:03.891Z,21.73
2023-05-19T18:35:32.249Z,21.71
2023-05-19T18:38:03.065Z,21.71
2023-05-19T18:40:31.750Z,21.71
2023-05-19T18:43:00.070Z,21.71
2023-05-19T18:45:30.440Z,21.69
2023-05-19T18:47:59.714Z,21.69
2023-05-19T18:50:29.380Z,21.69
2023-05-19T18:52:57.745Z,21.68
2023-05-19T18:55:25.935Z,21.67
2023-05-19T18:57:56.856Z,21.66
2023-05-19T19:00:25.839Z,21.65
2023-05-19T19:02:56.849Z,21.64
2023-05-19T19:05:25.337Z,21.64
2023-05-19T19:07:55.265Z,21.63
2023-05-19T19:10:23.615Z,21.62
2023-05-19T19:12:51.837Z,21.61
2023-05-19T19:15:19.998Z,21.61
2023-05-19T19:17:51.239Z,21.59
2023-05-19T19:20:50.614Z,21.58
2023-05-19T19:23:23.826Z,21.57
2023-05-19T19:25:56.255Z,21.57
2023-05-19T19:28:28.040Z,21.55
2023-05-19T19:30:59.919Z,21.54
2023-05-19T19:33:32.518Z,21.54
2023-05-19T19:36:08.342Z,21.52
2023-05-19T19:38:52.675Z,21.51
2023-05-19T19:41:28.562Z,21.50
2023-05-19T19:43:58.406Z,21.49
2023-05-19T19:46:34.163Z,21.48
2023-05-19T19:49:02.671Z,21.47
2023-05-19T19:51:31.553Z,21.47
2023-05-19T19:54:03.658Z,21.45
2023-05-19T19:56:31.996Z,21.45
2023-05-19T19:59:00.235Z,21.43
2023-05-19T20:01:28.670Z,21.42
2023-05-19T20:03:57.546Z,21.41
2023-05-19T20:06:26.264Z,21.40
2023-05-19T20:08:55.112Z,21.39
2023-05-19T20:11:27.598Z,21.38
2023-05-19T20:13:58.449Z,21.37
2023-05-19T20:16:27.046Z,21.36
2023-05-19T20:18:59.611Z,21.34
2023-05-19T20:21:28.116Z,21.34
2023-05-19T20:23:57.266Z,21.33
2023-05-19T20:26:27.155Z,21.32
2023-05-19T20:29:02.182Z,21.31
2023-05-19T20:31:30.711Z,21.31
2023-05-19T20:33:59.459Z,21.30
2023-05-19T20:36:33.388Z,21.29
2023-05-19T20:39:01.693Z,21.29
2023-05-19T20:41:32.334Z,21.28
2023-05-19T20:44:00.546Z,21.27
2023-05-19T20:46:35.187Z,21.25
2023-05-19T20:49:04.824Z,21.26
2023-05-19T20:51:33.154Z,21.25
2023-05-19T20:54:01.860Z,21.23
2023-05-19T20:56:32.689Z,21.23
2023-05-19T20:59:02.258Z,21.22
2023-05-19T21:01:33.510Z,21.21
2023-05-19T21:04:06.085Z,21.21
2023-05-19T21:06:36.483Z,21.20
2023-05-19T21:09:07.096Z,21.19
2023-05-19T21:11:35.553Z,21.18
2023-05-19T21:14:05.221Z,21.18
2023-05-19T21:16:38.904Z,21.15
2023-05-19T21:19:07.727Z,21.14
2023-05-19T21:21:36.362Z,21.13
2023-05-19T21:24:04.689Z,21.13
2023-05-19T21:26:35.069Z,21.12
2023-05-19T21:29:04.649Z,21.11
2023-05-19T21:31:32.915Z,21.11
2023-05-19T21:34:01.300Z,21.10
2023-05-19T21:36:29.406Z,21.08
2023-05-19T21:38:57.526Z,21.07
2023-05-19T21:41:26.006Z,21.07
2023-05-19T21:43:56.461Z,21.06
2023-05-19T21:46:26.651Z,21.06
2023-05-19T21:48:57.573Z,21.04
2023-05-19T21:51:25.800Z,21.04
2023-05-19T21:53:53.914Z,21.04
2023-05-19T21:56:24.878Z,21.03
2023-05-19T21:58:53.027Z,21.02
2023-05-19T22:01:22.277Z,21.00
2023-05-19T22:03:52.229Z,21.00
2023-05-19T22:06:30.894Z,20.99
2023-05-19T22:09:01.111Z,20.98
2023-05-19T22:11:32.194Z,20.97
2023-05-19T22:14:00.273Z,20.97
2023-05-19T22:16:28.489Z,20.95
2023-05-19T22:18:58.210Z,20.94
2023-05-19T22:21:26.456Z,20.93
2023-05-19T22:23:57.585Z,20.93
2023-05-19T22:26:26.054Z,20.92
2023-05-19T22:28:56.995Z,20.91
2023-05-19T22:31:25.145Z,20.91
2023-05-19T22:33:54.550Z,20.90
2023-05-19T22:36:27.174Z,20.87
2023-05-19T22:38:55.367Z,20.86
2023-05-19T22:41:23.790Z,20.87
2023-05-19T22:43:52.004Z,20.86
2023-05-19T22:46:21.308Z,20.85
2023-05-19T22:48:50.064Z,20.83
2023-05-19T22:51:18.496Z,20.83
2023-05-19T22:53:51.313Z,20.81
2023-05-19T22:56:19.586Z,20.81
2023-05-19T22:58:47.721Z,20.80
2023-05-19T23:01:17.025Z,20.78
2023-05-19T23:03:45.748Z,20.79
2023-05-19T23:06:13.889Z,20.77
2023-05-19T23:08:42.027Z,20.76
2023-05-19T23:11:13.999Z,20.74
2023-05-19T23:13:42.135Z,20.74
2023-05-19T23:16:10.324Z,20.73
2023-05-19T23:18:38.705Z,20.72
2023-05-19T23:21:06.988Z,20.71
2023-05-19T23:23:35.945Z,20.70
2023-05-19T23:26:04.144Z,20.70
2023-05-19T23:28:33.863Z,20.68
2023-05-19T23:31:05.044Z,20.68
2023-05-19T23:33:33.167Z,20.67
2023-05-19T23:36:06.866Z,20.67
2023-05-19T23:38:37.784Z,20.66
2023-05-19T23:41:08.920Z,20.64
2023-05-19T23:43:39.091Z,20.63
2023-05-19T23:46:07.795Z,20.62
2023-05-19T23:48:37.474Z,20.62
2023-05-19T23:51:06.291Z,20.61
2023-05-19T23:53:34.464Z,20.60
2023-05-19T23:56:02.801Z,20.58
2023-05-19T23:58:34.210Z,20.57
